Altoona, WI (54720)

6:15 AM CDT on July 29, 2016 (GMT -0500)
Lake Altoona County Park | | Change Station

Elev 853 ft 44.81 °N, 91.42 °W | Updated 9 seconds ago

Overcast
Overcast
61.2 °F
Feels Like 61.2 °F
N
0.0
Wind Variable Wind from NNW
Gusts 0.0 mph

Today
High -- | Low -- °F
--% Chance of Precip.
Yesterday
High -- | Low -- °F
Precip. -- in
Pressure 30.04 in
Visibility 10.0 miles
Clouds Scattered Clouds 4500 ft
Mostly Cloudy 6000 ft
Overcast 8000 ft
Dew Point 56 °F
Humidity 83%
Rainfall 0.00 in
Snow Depth Not available.
5:48 AM 8:34 PM
Waning Crescent, 23% visible
METAR KEAU 291056Z 03004KT 10SM SCT045 BKN060 OVC080 16/13 A3004 RMK AO2 SLP170 T01610133
Pressure 30.04 in
Visibility 10.0 miles
Clouds Scattered Clouds 4500 ft
Mostly Cloudy 6000 ft
Overcast 8000 ft
Dew Point 56 °F
Humidity 83%
Rainfall 0.00 in
Snow Depth Not available.
5:48 AM 8:34 PM
Waning Crescent, 23% visible
METAR KEAU 291056Z 03004KT 10SM SCT045 BKN060 OVC080 16/13 A3004 RMK AO2 SLP170 T01610133

10-Day Weather Forecast

Almanac

Astronomy

Jul. 29, 2016 Rise Set
Actual Time
Civil Twilight
Nautical Twilight
Astronomical Twilight
Moon
Length of Visible Light
Length of Day
Tomorrow will be .
, % of the Moon is Illuminated

Today's Extremes

State Highs State Lows

Community

WunderPhotos

Upload Photos

1,928,312 photos uploaded!

WunderBlog® & News

Nearby

Air Quality

  Air Quality AQ Index Pollutant
Not available.

Snow Depth

Station Depth Elevation

Earthquake Activity

City Distance Mag. Time & Date
Minimum magnitude displayed is 2.5.

Coastal Water Temperatures

Place Temperature

Stations

Nearby Weather Stations

Station Location Temp. Windchill Dew Point Humidity Wind Precip. Elev Updated Type
                   

Watches & Warnings

There are currently no watches in effect.